sensor_id;sensor_type;location;lat;lon;timestamp;P1;durP1;ratioP1;P2;durP2;ratioP2
64037;SDS011;54641;50.168;8.492;2024-02-23T00:00:16;1.70;;;0.70;;
64037;SDS011;54641;50.168;8.492;2024-02-23T00:02:47;1.30;;;0.60;;
64037;SDS011;54641;50.168;8.492;2024-02-23T00:05:17;3.30;;;0.70;;
64037;SDS011;54641;50.168;8.492;2024-02-23T00:07:47;2.10;;;0.50;;
64037;SDS011;54641;50.168;8.492;2024-02-23T00:10:18;2.40;;;0.60;;
64037;SDS011;54641;50.168;8.492;2024-02-23T00:12:49;3.00;;;0.70;;
64037;SDS011;54641;50.168;8.492;2024-02-23T00:15:19;1.90;;;0.50;;
64037;SDS011;54641;50.168;8.492;2024-02-23T00:17:52;2.50;;;0.80;;
64037;SDS011;54641;50.168;8.492;2024-02-23T00:20:22;2.00;;;0.80;;
64037;SDS011;54641;50.168;8.492;2024-02-23T00:22:53;1.10;;;0.60;;
64037;SDS011;54641;50.168;8.492;2024-02-23T00:25:24;1.40;;;0.70;;
64037;SDS011;54641;50.168;8.492;2024-02-23T00:27:54;0.90;;;0.70;;
64037;SDS011;54641;50.168;8.492;2024-02-23T00:30:25;2.20;;;0.70;;
64037;SDS011;54641;50.168;8.492;2024-02-23T00:32:55;2.20;;;0.80;;
64037;SDS011;54641;50.168;8.492;2024-02-23T00:35:26;2.10;;;0.60;;
64037;SDS011;54641;50.168;8.492;2024-02-23T00:37:57;3.60;;;0.80;;
64037;SDS011;54641;50.168;8.492;2024-02-23T00:40:27;1.80;;;0.70;;
64037;SDS011;54641;50.168;8.492;2024-02-23T00:42:57;1.60;;;0.70;;
64037;SDS011;54641;50.168;8.492;2024-02-23T00:45:31;2.70;;;1.00;;
64037;SDS011;54641;50.168;8.492;2024-02-23T00:48:01;4.60;;;1.00;;
64037;SDS011;54641;50.168;8.492;2024-02-23T00:50:32;2.60;;;0.70;;
64037;SDS011;54641;50.168;8.492;2024-02-23T00:53:03;2.90;;;0.70;;
64037;SDS011;54641;50.168;8.492;2024-02-23T00:55:33;4.40;;;0.90;;
64037;SDS011;54641;50.168;8.492;2024-02-23T00:58:04;3.00;;;0.80;;
64037;SDS011;54641;50.168;8.492;2024-02-23T01:00:34;2.00;;;0.70;;
64037;SDS011;54641;50.168;8.492;2024-02-23T01:03:05;2.50;;;0.50;;
64037;SDS011;54641;50.168;8.492;2024-02-23T01:05:36;6.70;;;0.70;;
64037;SDS011;54641;50.168;8.492;2024-02-23T01:08:07;1.80;;;0.60;;
64037;SDS011;54641;50.168;8.492;2024-02-23T01:10:38;3.50;;;1.10;;
64037;SDS011;54641;50.168;8.492;2024-02-23T01:13:08;3.50;;;0.70;;
64037;SDS011;54641;50.168;8.492;2024-02-23T01:15:38;1.90;;;0.60;;
64037;SDS011;54641;50.168;8.492;2024-02-23T01:18:09;4.20;;;0.60;;
64037;SDS011;54641;50.168;8.492;2024-02-23T01:20:40;0.80;;;0.40;;
64037;SDS011;54641;50.168;8.492;2024-02-23T01:23:10;2.30;;;0.70;;
64037;SDS011;54641;50.168;8.492;2024-02-23T01:25:40;4.40;;;1.10;;
64037;SDS011;54641;50.168;8.492;2024-02-23T01:28:12;1.70;;;0.40;;
64037;SDS011;54641;50.168;8.492;2024-02-23T01:30:42;1.30;;;0.50;;
64037;SDS011;54641;50.168;8.492;2024-02-23T01:33:13;1.70;;;0.40;;
64037;SDS011;54641;50.168;8.492;2024-02-23T01:35:44;2.30;;;0.50;;
64037;SDS011;54641;50.168;8.492;2024-02-23T01:38:15;2.60;;;0.50;;
64037;SDS011;54641;50.168;8.492;2024-02-23T01:40:49;1.80;;;0.60;;
64037;SDS011;54641;50.168;8.492;2024-02-23T01:43:19;3.50;;;0.70;;
64037;SDS011;54641;50.168;8.492;2024-02-23T01:45:50;0.60;;;0.40;;
64037;SDS011;54641;50.168;8.492;2024-02-23T01:48:20;1.70;;;0.40;;
64037;SDS011;54641;50.168;8.492;2024-02-23T01:50:53;1.30;;;0.50;;
64037;SDS011;54641;50.168;8.492;2024-02-23T01:53:23;1.60;;;0.40;;
64037;SDS011;54641;50.168;8.492;2024-02-23T01:55:55;2.70;;;0.40;;
64037;SDS011;54641;50.168;8.492;2024-02-23T01:58:25;0.50;;;0.30;;
64037;SDS011;54641;50.168;8.492;2024-02-23T02:00:56;0.70;;;0.40;;
64037;SDS011;54641;50.168;8.492;2024-02-23T02:03:26;2.00;;;0.30;;
64037;SDS011;54641;50.168;8.492;2024-02-23T02:05:57;1.80;;;0.30;;
64037;SDS011;54641;50.168;8.492;2024-02-23T02:08:28;1.30;;;0.30;;
64037;SDS011;54641;50.168;8.492;2024-02-23T02:10:59;0.90;;;0.30;;
64037;SDS011;54641;50.168;8.492;2024-02-23T02:13:30;1.40;;;0.50;;
64037;SDS011;54641;50.168;8.492;2024-02-23T02:16:01;2.10;;;0.70;;
64037;SDS011;54641;50.168;8.492;2024-02-23T02:18:32;1.80;;;0.30;;
64037;SDS011;54641;50.168;8.492;2024-02-23T02:21:03;1.70;;;0.40;;
64037;SDS011;54641;50.168;8.492;2024-02-23T02:23:33;3.60;;;1.30;;
64037;SDS011;54641;50.168;8.492;2024-02-23T02:26:05;2.90;;;0.40;;
64037;SDS011;54641;50.168;8.492;2024-02-23T02:28:36;0.90;;;0.40;;
64037;SDS011;54641;50.168;8.492;2024-02-23T02:31:06;1.00;;;0.30;;
64037;SDS011;54641;50.168;8.492;2024-02-23T02:33:37;3.30;;;0.80;;
64037;SDS011;54641;50.168;8.492;2024-02-23T02:36:09;3.60;;;0.70;;
64037;SDS011;54641;50.168;8.492;2024-02-23T02:38:39;1.40;;;0.30;;
64037;SDS011;54641;50.168;8.492;2024-02-23T02:41:09;3.30;;;0.60;;
64037;SDS011;54641;50.168;8.492;2024-02-23T02:43:40;1.40;;;0.60;;
64037;SDS011;54641;50.168;8.492;2024-02-23T02:46:10;2.30;;;0.40;;
64037;SDS011;54641;50.168;8.492;2024-02-23T02:48:41;1.50;;;0.40;;
64037;SDS011;54641;50.168;8.492;2024-02-23T02:51:12;3.00;;;0.40;;
64037;SDS011;54641;50.168;8.492;2024-02-23T02:53:42;1.30;;;0.50;;
64037;SDS011;54641;50.168;8.492;2024-02-23T02:56:13;2.80;;;0.40;;
64037;SDS011;54641;50.168;8.492;2024-02-23T02:58:44;2.20;;;0.40;;
64037;SDS011;54641;50.168;8.492;2024-02-23T03:01:15;6.30;;;0.70;;
64037;SDS011;54641;50.168;8.492;2024-02-23T03:03:46;3.10;;;0.50;;
64037;SDS011;54641;50.168;8.492;2024-02-23T03:06:17;1.70;;;0.70;;
64037;SDS011;54641;50.168;8.492;2024-02-23T03:08:48;0.80;;;0.30;;
64037;SDS011;54641;50.168;8.492;2024-02-23T03:11:18;1.00;;;0.40;;
64037;SDS011;54641;50.168;8.492;2024-02-23T03:13:49;1.60;;;0.50;;
64037;SDS011;54641;50.168;8.492;2024-02-23T03:16:20;1.90;;;0.40;;
64037;SDS011;54641;50.168;8.492;2024-02-23T03:18:53;4.80;;;0.80;;
64037;SDS011;54641;50.168;8.492;2024-02-23T03:21:24;1.80;;;0.60;;
64037;SDS011;54641;50.168;8.492;2024-02-23T03:23:54;2.30;;;0.30;;
64037;SDS011;54641;50.168;8.492;2024-02-23T03:26:25;4.70;;;0.60;;
64037;SDS011;54641;50.168;8.492;2024-02-23T03:28:55;1.40;;;0.50;;
64037;SDS011;54641;50.168;8.492;2024-02-23T03:31:25;3.20;;;0.60;;
64037;SDS011;54641;50.168;8.492;2024-02-23T03:33:56;5.40;;;0.60;;
64037;SDS011;54641;50.168;8.492;2024-02-23T03:36:27;1.20;;;0.30;;
64037;SDS011;54641;50.168;8.492;2024-02-23T03:38:57;1.30;;;0.50;;
64037;SDS011;54641;50.168;8.492;2024-02-23T03:41:28;2.40;;;0.70;;
64037;SDS011;54641;50.168;8.492;2024-02-23T03:43:58;2.50;;;0.60;;
64037;SDS011;54641;50.168;8.492;2024-02-23T03:46:29;2.40;;;0.50;;
64037;SDS011;54641;50.168;8.492;2024-02-23T03:48:59;3.30;;;0.70;;
64037;SDS011;54641;50.168;8.492;2024-02-23T03:51:30;2.60;;;0.50;;
64037;SDS011;54641;50.168;8.492;2024-02-23T03:54:02;1.10;;;0.40;;
64037;SDS011;54641;50.168;8.492;2024-02-23T03:56:38;2.00;;;0.40;;
64037;SDS011;54641;50.168;8.492;2024-02-23T03:59:09;2.60;;;0.60;;
64037;SDS011;54641;50.168;8.492;2024-02-23T04:01:40;2.70;;;0.60;;
64037;SDS011;54641;50.168;8.492;2024-02-23T04:04:10;4.00;;;0.90;;
64037;SDS011;54641;50.168;8.492;2024-02-23T04:06:41;2.30;;;0.60;;
64037;SDS011;54641;50.168;8.492;2024-02-23T04:09:11;4.20;;;0.60;;
64037;SDS011;54641;50.168;8.492;2024-02-23T04:11:42;4.60;;;0.70;;
64037;SDS011;54641;50.168;8.492;2024-02-23T04:14:16;0.70;;;0.40;;
64037;SDS011;54641;50.168;8.492;2024-02-23T04:16:46;2.70;;;0.70;;
64037;SDS011;54641;50.168;8.492;2024-02-23T04:19:17;5.00;;;0.70;;
64037;SDS011;54641;50.168;8.492;2024-02-23T04:21:48;3.20;;;0.70;;
64037;SDS011;54641;50.168;8.492;2024-02-23T04:24:18;1.90;;;0.40;;
64037;SDS011;54641;50.168;8.492;2024-02-23T04:26:51;4.30;;;0.70;;
64037;SDS011;54641;50.168;8.492;2024-02-23T04:29:22;3.10;;;0.80;;
64037;SDS011;54641;50.168;8.492;2024-02-23T04:31:52;2.80;;;0.90;;
64037;SDS011;54641;50.168;8.492;2024-02-23T04:34:23;2.10;;;0.50;;
64037;SDS011;54641;50.168;8.492;2024-02-23T04:36:53;1.70;;;0.40;;
64037;SDS011;54641;50.168;8.492;2024-02-23T04:39:24;1.80;;;0.70;;
64037;SDS011;54641;50.168;8.492;2024-02-23T04:41:55;5.80;;;0.70;;
64037;SDS011;54641;50.168;8.492;2024-02-23T04:44:25;1.00;;;0.40;;
64037;SDS011;54641;50.168;8.492;2024-02-23T04:46:56;3.00;;;0.50;;
64037;SDS011;54641;50.168;8.492;2024-02-23T04:49:26;3.90;;;1.10;;
64037;SDS011;54641;50.168;8.492;2024-02-23T04:51:57;2.80;;;0.60;;
64037;SDS011;54641;50.168;8.492;2024-02-23T04:54:28;5.60;;;0.80;;
64037;SDS011;54641;50.168;8.492;2024-02-23T04:56:59;4.10;;;0.80;;
64037;SDS011;54641;50.168;8.492;2024-02-23T04:59:29;3.50;;;0.70;;
64037;SDS011;54641;50.168;8.492;2024-02-23T05:02:00;3.00;;;0.60;;
64037;SDS011;54641;50.168;8.492;2024-02-23T05:04:32;3.80;;;0.50;;
64037;SDS011;54641;50.168;8.492;2024-02-23T05:07:02;0.60;;;0.50;;
64037;SDS011;54641;50.168;8.492;2024-02-23T05:09:33;1.40;;;0.60;;
64037;SDS011;54641;50.168;8.492;2024-02-23T05:12:04;3.20;;;0.70;;
64037;SDS011;54641;50.168;8.492;2024-02-23T05:14:35;2.00;;;0.50;;
64037;SDS011;54641;50.168;8.492;2024-02-23T05:17:06;3.90;;;0.90;;
64037;SDS011;54641;50.168;8.492;2024-02-23T05:19:36;4.30;;;1.10;;
64037;SDS011;54641;50.168;8.492;2024-02-23T05:22:07;4.40;;;1.40;;
64037;SDS011;54641;50.168;8.492;2024-02-23T05:24:37;4.00;;;1.40;;
64037;SDS011;54641;50.168;8.492;2024-02-23T05:27:07;5.90;;;1.50;;
64037;SDS011;54641;50.168;8.492;2024-02-23T05:29:38;4.60;;;1.30;;
64037;SDS011;54641;50.168;8.492;2024-02-23T05:32:08;1.40;;;0.90;;
64037;SDS011;54641;50.168;8.492;2024-02-23T05:34:39;4.50;;;1.50;;
64037;SDS011;54641;50.168;8.492;2024-02-23T05:37:10;3.90;;;1.50;;
64037;SDS011;54641;50.168;8.492;2024-02-23T05:39:40;6.40;;;1.70;;
64037;SDS011;54641;50.168;8.492;2024-02-23T05:42:14;4.10;;;1.40;;
64037;SDS011;54641;50.168;8.492;2024-02-23T05:44:45;4.40;;;1.30;;
64037;SDS011;54641;50.168;8.492;2024-02-23T05:47:16;6.60;;;1.80;;
64037;SDS011;54641;50.168;8.492;2024-02-23T05:49:49;4.60;;;1.40;;
64037;SDS011;54641;50.168;8.492;2024-02-23T05:52:19;4.70;;;1.60;;
64037;SDS011;54641;50.168;8.492;2024-02-23T05:54:50;5.90;;;2.20;;
64037;SDS011;54641;50.168;8.492;2024-02-23T05:57:23;6.90;;;1.80;;
64037;SDS011;54641;50.168;8.492;2024-02-23T05:59:54;5.80;;;1.80;;
64037;SDS011;54641;50.168;8.492;2024-02-23T06:02:25;5.40;;;2.00;;
64037;SDS011;54641;50.168;8.492;2024-02-23T06:04:55;7.70;;;1.80;;
64037;SDS011;54641;50.168;8.492;2024-02-23T06:07:26;7.20;;;2.50;;
64037;SDS011;54641;50.168;8.492;2024-02-23T06:09:57;5.40;;;2.40;;
64037;SDS011;54641;50.168;8.492;2024-02-23T06:12:28;6.90;;;2.20;;
64037;SDS011;54641;50.168;8.492;2024-02-23T06:15:02;5.20;;;2.00;;
64037;SDS011;54641;50.168;8.492;2024-02-23T06:17:33;4.50;;;2.10;;
64037;SDS011;54641;50.168;8.492;2024-02-23T06:20:05;5.90;;;1.80;;
64037;SDS011;54641;50.168;8.492;2024-02-23T06:22:37;4.60;;;2.00;;
64037;SDS011;54641;50.168;8.492;2024-02-23T06:25:08;6.90;;;2.40;;
64037;SDS011;54641;50.168;8.492;2024-02-23T06:27:40;6.30;;;1.40;;
64037;SDS011;54641;50.168;8.492;2024-02-23T06:30:10;5.90;;;1.50;;
64037;SDS011;54641;50.168;8.492;2024-02-23T06:32:41;4.20;;;1.30;;
64037;SDS011;54641;50.168;8.492;2024-02-23T06:35:13;2.60;;;0.90;;
64037;SDS011;54641;50.168;8.492;2024-02-23T06:37:44;2.10;;;1.10;;
64037;SDS011;54641;50.168;8.492;2024-02-23T06:40:15;3.60;;;1.40;;
64037;SDS011;54641;50.168;8.492;2024-02-23T06:42:46;2.70;;;1.10;;
64037;SDS011;54641;50.168;8.492;2024-02-23T06:45:16;5.20;;;2.10;;
64037;SDS011;54641;50.168;8.492;2024-02-23T06:47:46;2.60;;;1.30;;
64037;SDS011;54641;50.168;8.492;2024-02-23T06:50:17;6.40;;;1.30;;
64037;SDS011;54641;50.168;8.492;2024-02-23T06:52:48;4.60;;;1.60;;
64037;SDS011;54641;50.168;8.492;2024-02-23T06:55:18;4.60;;;1.90;;
64037;SDS011;54641;50.168;8.492;2024-02-23T06:57:49;6.40;;;2.80;;
64037;SDS011;54641;50.168;8.492;2024-02-23T07:00:19;4.70;;;2.10;;
64037;SDS011;54641;50.168;8.492;2024-02-23T07:02:50;6.90;;;2.30;;
64037;SDS011;54641;50.168;8.492;2024-02-23T07:05:21;8.50;;;2.60;;
64037;SDS011;54641;50.168;8.492;2024-02-23T07:07:51;7.20;;;2.30;;
64037;SDS011;54641;50.168;8.492;2024-02-23T07:10:22;3.90;;;1.70;;
64037;SDS011;54641;50.168;8.492;2024-02-23T07:12:53;6.60;;;2.00;;
64037;SDS011;54641;50.168;8.492;2024-02-23T07:15:25;5.70;;;1.70;;
64037;SDS011;54641;50.168;8.492;2024-02-23T07:17:56;6.60;;;2.00;;
64037;SDS011;54641;50.168;8.492;2024-02-23T07:20:26;4.00;;;1.60;;
64037;SDS011;54641;50.168;8.492;2024-02-23T07:22:56;5.10;;;2.10;;
64037;SDS011;54641;50.168;8.492;2024-02-23T07:25:27;5.10;;;1.70;;
64037;SDS011;54641;50.168;8.492;2024-02-23T07:27:57;2.90;;;1.20;;
64037;SDS011;54641;50.168;8.492;2024-02-23T07:30:27;5.80;;;1.30;;
64037;SDS011;54641;50.168;8.492;2024-02-23T07:32:58;5.40;;;1.50;;
64037;SDS011;54641;50.168;8.492;2024-02-23T07:35:28;5.20;;;1.20;;
64037;SDS011;54641;50.168;8.492;2024-02-23T07:37:59;5.30;;;1.50;;
64037;SDS011;54641;50.168;8.492;2024-02-23T07:40:29;2.60;;;1.00;;
64037;SDS011;54641;50.168;8.492;2024-02-23T07:43:00;4.20;;;0.90;;
64037;SDS011;54641;50.168;8.492;2024-02-23T07:45:30;2.90;;;1.00;;
64037;SDS011;54641;50.168;8.492;2024-02-23T07:48:02;6.90;;;1.20;;
64037;SDS011;54641;50.168;8.492;2024-02-23T07:50:33;2.60;;;1.00;;
64037;SDS011;54641;50.168;8.492;2024-02-23T07:53:04;2.30;;;0.80;;
64037;SDS011;54641;50.168;8.492;2024-02-23T07:55:35;3.30;;;1.10;;
64037;SDS011;54641;50.168;8.492;2024-02-23T07:58:05;3.70;;;0.80;;
64037;SDS011;54641;50.168;8.492;2024-02-23T08:00:36;3.70;;;1.10;;
64037;SDS011;54641;50.168;8.492;2024-02-23T08:03:07;3.10;;;1.10;;
64037;SDS011;54641;50.168;8.492;2024-02-23T08:05:38;5.00;;;1.30;;
64037;SDS011;54641;50.168;8.492;2024-02-23T08:08:09;3.50;;;1.40;;
64037;SDS011;54641;50.168;8.492;2024-02-23T08:10:39;3.10;;;0.70;;
64037;SDS011;54641;50.168;8.492;2024-02-23T08:13:10;7.00;;;1.00;;
64037;SDS011;54641;50.168;8.492;2024-02-23T08:15:40;6.90;;;1.20;;
64037;SDS011;54641;50.168;8.492;2024-02-23T08:18:11;5.70;;;1.30;;
64037;SDS011;54641;50.168;8.492;2024-02-23T08:20:41;6.30;;;1.60;;
64037;SDS011;54641;50.168;8.492;2024-02-23T08:23:12;4.60;;;1.20;;
64037;SDS011;54641;50.168;8.492;2024-02-23T08:25:42;2.90;;;0.90;;
64037;SDS011;54641;50.168;8.492;2024-02-23T08:28:13;7.30;;;1.50;;
64037;SDS011;54641;50.168;8.492;2024-02-23T08:30:44;3.90;;;0.90;;
64037;SDS011;54641;50.168;8.492;2024-02-23T08:33:14;6.40;;;1.40;;
64037;SDS011;54641;50.168;8.492;2024-02-23T08:35:45;6.20;;;1.70;;
64037;SDS011;54641;50.168;8.492;2024-02-23T08:38:17;1.20;;;0.70;;
64037;SDS011;54641;50.168;8.492;2024-02-23T08:40:47;4.40;;;1.10;;
64037;SDS011;54641;50.168;8.492;2024-02-23T08:43:18;5.70;;;1.30;;
64037;SDS011;54641;50.168;8.492;2024-02-23T08:45:48;4.30;;;1.30;;
64037;SDS011;54641;50.168;8.492;2024-02-23T08:48:19;5.50;;;1.90;;
64037;SDS011;54641;50.168;8.492;2024-02-23T08:50:50;9.70;;;2.30;;
64037;SDS011;54641;50.168;8.492;2024-02-23T08:53:20;4.40;;;1.30;;
64037;SDS011;54641;50.168;8.492;2024-02-23T08:55:52;4.70;;;0.70;;
64037;SDS011;54641;50.168;8.492;2024-02-23T08:58:23;2.60;;;0.90;;
64037;SDS011;54641;50.168;8.492;2024-02-23T09:00:53;4.80;;;1.00;;
64037;SDS011;54641;50.168;8.492;2024-02-23T09:03:24;6.00;;;1.10;;
64037;SDS011;54641;50.168;8.492;2024-02-23T09:05:55;4.50;;;1.20;;
64037;SDS011;54641;50.168;8.492;2024-02-23T09:08:27;5.10;;;1.20;;
64037;SDS011;54641;50.168;8.492;2024-02-23T09:10:57;5.70;;;1.10;;
64037;SDS011;54641;50.168;8.492;2024-02-23T09:13:28;4.80;;;1.10;;
64037;SDS011;54641;50.168;8.492;2024-02-23T09:16:01;6.40;;;1.00;;
64037;SDS011;54641;50.168;8.492;2024-02-23T09:18:33;4.80;;;1.70;;
64037;SDS011;54641;50.168;8.492;2024-02-23T09:21:03;4.30;;;1.00;;
64037;SDS011;54641;50.168;8.492;2024-02-23T09:23:34;7.70;;;1.90;;
64037;SDS011;54641;50.168;8.492;2024-02-23T09:26:09;5.00;;;1.30;;
64037;SDS011;54641;50.168;8.492;2024-02-23T09:28:40;2.90;;;1.00;;
64037;SDS011;54641;50.168;8.492;2024-02-23T09:31:10;3.60;;;1.30;;
64037;SDS011;54641;50.168;8.492;2024-02-23T09:33:40;3.90;;;1.40;;
64037;SDS011;54641;50.168;8.492;2024-02-23T09:36:12;5.30;;;1.80;;
64037;SDS011;54641;50.168;8.492;2024-02-23T09:38:42;4.60;;;1.60;;
64037;SDS011;54641;50.168;8.492;2024-02-23T09:41:17;5.50;;;1.20;;
64037;SDS011;54641;50.168;8.492;2024-02-23T09:43:50;6.20;;;1.50;;
64037;SDS011;54641;50.168;8.492;2024-02-23T09:46:21;4.90;;;1.70;;
64037;SDS011;54641;50.168;8.492;2024-02-23T09:48:51;5.80;;;1.00;;
64037;SDS011;54641;50.168;8.492;2024-02-23T09:51:21;6.80;;;1.20;;
64037;SDS011;54641;50.168;8.492;2024-02-23T09:53:56;10.90;;;2.10;;
64037;SDS011;54641;50.168;8.492;2024-02-23T09:56:27;6.90;;;2.20;;
64037;SDS011;54641;50.168;8.492;2024-02-23T09:58:59;8.80;;;2.20;;
64037;SDS011;54641;50.168;8.492;2024-02-23T10:01:31;5.80;;;1.20;;
64037;SDS011;54641;50.168;8.492;2024-02-23T10:04:04;8.00;;;2.00;;
64037;SDS011;54641;50.168;8.492;2024-02-23T10:06:35;5.50;;;1.60;;
64037;SDS011;54641;50.168;8.492;2024-02-23T10:09:06;4.80;;;1.10;;
64037;SDS011;54641;50.168;8.492;2024-02-23T10:11:36;8.40;;;1.20;;
64037;SDS011;54641;50.168;8.492;2024-02-23T10:14:07;6.00;;;1.30;;
64037;SDS011;54641;50.168;8.492;2024-02-23T10:16:38;6.30;;;1.10;;
64037;SDS011;54641;50.168;8.492;2024-02-23T10:19:08;2.80;;;0.90;;
64037;SDS011;54641;50.168;8.492;2024-02-23T10:21:39;5.40;;;1.40;;
64037;SDS011;54641;50.168;8.492;2024-02-23T10:24:09;4.20;;;1.00;;
64037;SDS011;54641;50.168;8.492;2024-02-23T10:26:39;3.10;;;0.90;;
64037;SDS011;54641;50.168;8.492;2024-02-23T10:29:10;8.10;;;1.30;;
64037;SDS011;54641;50.168;8.492;2024-02-23T10:31:44;7.80;;;1.10;;
64037;SDS011;54641;50.168;8.492;2024-02-23T10:34:18;8.00;;;1.20;;
64037;SDS011;54641;50.168;8.492;2024-02-23T10:36:49;4.60;;;1.40;;
64037;SDS011;54641;50.168;8.492;2024-02-23T10:39:19;5.40;;;1.20;;
64037;SDS011;54641;50.168;8.492;2024-02-23T10:41:56;8.90;;;2.50;;
64037;SDS011;54641;50.168;8.492;2024-02-23T10:44:27;6.60;;;1.20;;
64037;SDS011;54641;50.168;8.492;2024-02-23T10:46:59;6.60;;;1.30;;
64037;SDS011;54641;50.168;8.492;2024-02-23T10:49:30;6.40;;;1.70;;
64037;SDS011;54641;50.168;8.492;2024-02-23T10:52:02;6.80;;;1.20;;
64037;SDS011;54641;50.168;8.492;2024-02-23T10:54:33;4.50;;;1.00;;
64037;SDS011;54641;50.168;8.492;2024-02-23T10:57:04;5.20;;;1.70;;
64037;SDS011;54641;50.168;8.492;2024-02-23T10:59:34;5.00;;;1.40;;
64037;SDS011;54641;50.168;8.492;2024-02-23T11:02:05;5.00;;;1.80;;
64037;SDS011;54641;50.168;8.492;2024-02-23T11:04:37;4.60;;;1.30;;
64037;SDS011;54641;50.168;8.492;2024-02-23T11:07:12;7.50;;;1.50;;
64037;SDS011;54641;50.168;8.492;2024-02-23T11:09:43;3.60;;;0.90;;
64037;SDS011;54641;50.168;8.492;2024-02-23T11:12:23;6.90;;;2.10;;
64037;SDS011;54641;50.168;8.492;2024-02-23T11:14:57;6.80;;;1.30;;
64037;SDS011;54641;50.168;8.492;2024-02-23T11:17:29;3.30;;;0.90;;
64037;SDS011;54641;50.168;8.492;2024-02-23T11:20:02;5.20;;;0.90;;
64037;SDS011;54641;50.168;8.492;2024-02-23T11:22:35;5.30;;;0.80;;
64037;SDS011;54641;50.168;8.492;2024-02-23T11:25:07;5.70;;;0.80;;
64037;SDS011;54641;50.168;8.492;2024-02-23T11:27:38;6.20;;;1.50;;
64037;SDS011;54641;50.168;8.492;2024-02-23T11:30:12;2.60;;;0.90;;
64037;SDS011;54641;50.168;8.492;2024-02-23T11:32:43;5.90;;;0.90;;
64037;SDS011;54641;50.168;8.492;2024-02-23T11:35:16;5.40;;;1.00;;
64037;SDS011;54641;50.168;8.492;2024-02-23T11:37:48;5.90;;;0.90;;
64037;SDS011;54641;50.168;8.492;2024-02-23T11:40:25;9.10;;;1.10;;
64037;SDS011;54641;50.168;8.492;2024-02-23T11:42:56;4.30;;;1.30;;
64037;SDS011;54641;50.168;8.492;2024-02-23T15:20:43;2.80;;;0.90;;
64037;SDS011;54641;50.168;8.492;2024-02-23T15:23:50;2.30;;;0.90;;
64037;SDS011;54641;50.168;8.492;2024-02-23T15:27:32;3.70;;;1.00;;
64037;SDS011;54641;50.168;8.492;2024-02-23T15:31:11;4.70;;;1.10;;
64037;SDS011;54641;50.168;8.492;2024-02-23T15:34:55;4.80;;;1.00;;
64037;SDS011;54641;50.168;8.492;2024-02-23T15:38:30;4.30;;;1.00;;
64037;SDS011;54641;50.168;8.492;2024-02-23T15:42:12;5.00;;;1.90;;
64037;SDS011;54641;50.168;8.492;2024-02-23T15:45:51;4.60;;;1.00;;
64037;SDS011;54641;50.168;8.492;2024-02-23T15:49:30;5.70;;;1.30;;
64037;SDS011;54641;50.168;8.492;2024-02-23T15:53:28;4.90;;;1.10;;
64037;SDS011;54641;50.168;8.492;2024-02-23T15:57:10;3.80;;;0.80;;
64037;SDS011;54641;50.168;8.492;2024-02-23T16:00:51;3.20;;;0.90;;
64037;SDS011;54641;50.168;8.492;2024-02-23T16:04:31;5.50;;;1.10;;
64037;SDS011;54641;50.168;8.492;2024-02-23T16:08:09;4.20;;;0.90;;
64037;SDS011;54641;50.168;8.492;2024-02-23T16:11:50;2.70;;;1.10;;
64037;SDS011;54641;50.168;8.492;2024-02-23T16:15:35;2.40;;;0.90;;
64037;SDS011;54641;50.168;8.492;2024-02-23T16:19:10;5.20;;;1.40;;
64037;SDS011;54641;50.168;8.492;2024-02-23T16:21:42;3.90;;;1.30;;
64037;SDS011;54641;50.168;8.492;2024-02-23T16:24:15;6.40;;;1.10;;
64037;SDS011;54641;50.168;8.492;2024-02-23T16:26:46;5.40;;;1.10;;
64037;SDS011;54641;50.168;8.492;2024-02-23T16:29:16;8.10;;;1.30;;
64037;SDS011;54641;50.168;8.492;2024-02-23T16:31:47;2.90;;;1.10;;
64037;SDS011;54641;50.168;8.492;2024-02-23T16:34:17;4.20;;;1.30;;
64037;SDS011;54641;50.168;8.492;2024-02-23T16:36:48;10.40;;;1.50;;
64037;SDS011;54641;50.168;8.492;2024-02-23T16:39:18;3.50;;;0.90;;
64037;SDS011;54641;50.168;8.492;2024-02-23T16:41:48;7.10;;;1.50;;
64037;SDS011;54641;50.168;8.492;2024-02-23T16:44:20;4.20;;;1.20;;
64037;SDS011;54641;50.168;8.492;2024-02-23T16:46:52;5.40;;;1.20;;
64037;SDS011;54641;50.168;8.492;2024-02-23T16:49:22;2.70;;;0.90;;
64037;SDS011;54641;50.168;8.492;2024-02-23T16:51:53;4.50;;;1.40;;
64037;SDS011;54641;50.168;8.492;2024-02-23T16:54:23;4.80;;;1.20;;
64037;SDS011;54641;50.168;8.492;2024-02-23T16:56:54;5.60;;;1.50;;
64037;SDS011;54641;50.168;8.492;2024-02-23T16:59:25;5.30;;;1.30;;
64037;SDS011;54641;50.168;8.492;2024-02-23T17:01:56;5.20;;;1.20;;
64037;SDS011;54641;50.168;8.492;2024-02-23T17:04:27;5.10;;;1.20;;
64037;SDS011;54641;50.168;8.492;2024-02-23T17:06:57;4.90;;;1.20;;
64037;SDS011;54641;50.168;8.492;2024-02-23T17:09:29;2.70;;;1.00;;
64037;SDS011;54641;50.168;8.492;2024-02-23T17:12:00;2.70;;;1.20;;
64037;SDS011;54641;50.168;8.492;2024-02-23T17:14:30;6.00;;;1.50;;
64037;SDS011;54641;50.168;8.492;2024-02-23T17:17:01;8.30;;;1.70;;
64037;SDS011;54641;50.168;8.492;2024-02-23T17:19:31;4.90;;;1.20;;
64037;SDS011;54641;50.168;8.492;2024-02-23T17:22:02;5.50;;;1.50;;
64037;SDS011;54641;50.168;8.492;2024-02-23T17:24:33;4.80;;;1.30;;
64037;SDS011;54641;50.168;8.492;2024-02-23T17:27:04;4.60;;;1.10;;
64037;SDS011;54641;50.168;8.492;2024-02-23T17:29:34;4.50;;;1.30;;
64037;SDS011;54641;50.168;8.492;2024-02-23T17:32:06;5.10;;;1.50;;
64037;SDS011;54641;50.168;8.492;2024-02-23T17:34:37;6.70;;;2.70;;
64037;SDS011;54641;50.168;8.492;2024-02-23T17:37:08;4.20;;;1.40;;
64037;SDS011;54641;50.168;8.492;2024-02-23T17:39:39;5.50;;;1.90;;
64037;SDS011;54641;50.168;8.492;2024-02-23T17:42:10;7.50;;;2.20;;
64037;SDS011;54641;50.168;8.492;2024-02-23T17:44:40;3.70;;;1.10;;
64037;SDS011;54641;50.168;8.492;2024-02-23T17:47:11;5.20;;;1.40;;
64037;SDS011;54641;50.168;8.492;2024-02-23T17:49:43;5.60;;;1.30;;
64037;SDS011;54641;50.168;8.492;2024-02-23T17:52:15;7.70;;;1.70;;
64037;SDS011;54641;50.168;8.492;2024-02-23T17:54:46;5.60;;;1.90;;
64037;SDS011;54641;50.168;8.492;2024-02-23T17:57:16;6.10;;;1.60;;
64037;SDS011;54641;50.168;8.492;2024-02-23T17:59:48;5.40;;;1.10;;
64037;SDS011;54641;50.168;8.492;2024-02-23T18:02:19;8.10;;;1.40;;
64037;SDS011;54641;50.168;8.492;2024-02-23T18:04:49;2.70;;;0.90;;
64037;SDS011;54641;50.168;8.492;2024-02-23T18:07:20;2.00;;;0.90;;
64037;SDS011;54641;50.168;8.492;2024-02-23T18:09:50;5.30;;;1.30;;
64037;SDS011;54641;50.168;8.492;2024-02-23T18:12:21;3.30;;;0.90;;
64037;SDS011;54641;50.168;8.492;2024-02-23T18:14:51;3.50;;;1.10;;
64037;SDS011;54641;50.168;8.492;2024-02-23T18:17:21;1.10;;;0.80;;
64037;SDS011;54641;50.168;8.492;2024-02-23T18:19:52;4.50;;;1.10;;
64037;SDS011;54641;50.168;8.492;2024-02-23T18:22:22;3.00;;;0.90;;
64037;SDS011;54641;50.168;8.492;2024-02-23T18:24:53;4.40;;;0.90;;
64037;SDS011;54641;50.168;8.492;2024-02-23T18:27:23;3.50;;;0.90;;
64037;SDS011;54641;50.168;8.492;2024-02-23T18:29:54;5.40;;;1.30;;
64037;SDS011;54641;50.168;8.492;2024-02-23T18:32:24;6.30;;;1.10;;
64037;SDS011;54641;50.168;8.492;2024-02-23T18:34:55;4.20;;;1.20;;
64037;SDS011;54641;50.168;8.492;2024-02-23T18:37:25;2.70;;;1.00;;
64037;SDS011;54641;50.168;8.492;2024-02-23T18:39:56;2.10;;;0.90;;
64037;SDS011;54641;50.168;8.492;2024-02-23T18:42:26;1.60;;;0.80;;
64037;SDS011;54641;50.168;8.492;2024-02-23T18:44:56;4.80;;;0.90;;
64037;SDS011;54641;50.168;8.492;2024-02-23T18:47:31;2.00;;;0.80;;
64037;SDS011;54641;50.168;8.492;2024-02-23T18:50:03;6.20;;;1.50;;
64037;SDS011;54641;50.168;8.492;2024-02-23T18:52:34;5.30;;;1.50;;
64037;SDS011;54641;50.168;8.492;2024-02-23T18:55:05;5.70;;;1.40;;
64037;SDS011;54641;50.168;8.492;2024-02-23T18:57:36;3.60;;;1.20;;
64037;SDS011;54641;50.168;8.492;2024-02-23T19:00:07;6.00;;;1.10;;
64037;SDS011;54641;50.168;8.492;2024-02-23T19:02:39;5.60;;;1.20;;